Langara, Canada
Current Conditions -  °F | °C
As of 6:00 PM on Saturday 24 Jan 2015 (Local Time) from CZMT Reporting Station
Scattered Clouds Scattered Clouds  
Wind Chill: 10°   Ceiling: Unl
Heat Index: 10°   Visibility: 15mi
Dew Point:   Wind: 22mph
Humidity: 76%   Direction: 190°S
Pressure: 29.35"   Gusts: 46mph
Location:  54.23°N, 133°W
Report Text: CZMT 250200Z 19019G40KT 160V220 15SM FEW006 FEW015 FEW090 SCT210 10/06 A2935 RMK CF1SC1AC1CI3 CF TR AC TR LAST OBS/NEXT 251500 UTC SLP938
Loading
Personal Weather Stations






























Interactive Weather Map New forecast layout! Learn more

10-Day Weather Forecast

Advertisements
Track Severe Weather on mobile